Sedalia, Missouri
Current Conditions -  °F | °C
As of 12:53 PM on Friday 24 Oct 2014 (Local Time) from KDMO Reporting Station
Broken Clouds Broken Clouds  
Wind Chill: 70°   Ceiling: 4200
Heat Index: 70°   Visibility: 10mi
Dew Point: 58°   Wind: 12mph
Humidity: 65%   Direction: 210°SSW
Pressure: 30.07"   Gusts: NA
Location:  38.71°N, 93.23°W
Report Text: KDMO 241753Z AUTO 21010KT 10SM BKN042 21/14 A3007 RMK AO2 SLP177 T02110144 10211 20144 58012
Loading
Personal Weather Stations






























Interactive Weather Map
Tropical Storm Tracking
New forecast layout! Learn more

10-Day Weather Forecast

Advertisements
Track Severe Weather on mobile